createdAt,value
2018-11-05T00:00:03.307Z,22.73
2018-11-05T00:02:31.895Z,25.70
2018-11-05T00:05:00.443Z,24.80
2018-11-05T00:07:29.047Z,22.90
2018-11-05T00:09:57.663Z,24.80
2018-11-05T00:12:26.233Z,24.57
2018-11-05T00:14:54.824Z,23.77
2018-11-05T00:17:23.396Z,25.20
2018-11-05T00:19:51.940Z,22.27
2018-11-05T00:22:20.496Z,23.67
2018-11-05T00:24:49.101Z,22.17
2018-11-05T00:27:17.654Z,23.03
2018-11-05T00:29:46.186Z,21.40
2018-11-05T00:32:14.776Z,20.13
2018-11-05T00:34:43.294Z,20.70
2018-11-05T00:37:11.818Z,22.10
2018-11-05T00:39:40.337Z,22.37
2018-11-05T00:42:08.944Z,21.50
2018-11-05T00:44:37.586Z,20.60
2018-11-05T00:47:06.134Z,21.10
2018-11-05T00:49:34.729Z,19.40
2018-11-05T00:52:03.270Z,21.63
2018-11-05T00:54:31.793Z,21.03
2018-11-05T00:57:00.442Z,21.57
2018-11-05T00:59:29.009Z,18.70
2018-11-05T01:01:57.556Z,20.97
2018-11-05T01:04:26.122Z,21.67
2018-11-05T01:06:54.683Z,20.17
2018-11-05T01:09:23.232Z,20.83
2018-11-05T01:11:51.799Z,20.50
2018-11-05T01:14:20.557Z,21.43
2018-11-05T01:16:49.082Z,20.60
2018-11-05T01:19:17.676Z,20.90
2018-11-05T01:21:46.203Z,20.83
2018-11-05T01:24:14.750Z,20.50
2018-11-05T01:26:43.331Z,19.57
2018-11-05T01:29:11.901Z,20.00
2018-11-05T01:31:40.423Z,19.13
2018-11-05T01:34:08.946Z,19.70
2018-11-05T01:36:37.494Z,20.83
2018-11-05T01:39:08.244Z,17.73
2018-11-05T01:41:36.922Z,17.67
2018-11-05T01:44:05.442Z,18.93
2018-11-05T01:46:33.975Z,18.03
2018-11-05T01:49:02.914Z,17.77
2018-11-05T01:51:31.464Z,18.43
2018-11-05T01:54:00.035Z,18.00
2018-11-05T01:56:28.582Z,17.00
2018-11-05T01:58:57.123Z,17.97
2018-11-05T02:01:25.642Z,19.80
2018-11-05T02:03:54.218Z,16.70
2018-11-05T02:06:22.802Z,18.33
2018-11-05T02:08:51.390Z,18.57
2018-11-05T02:11:19.951Z,18.03
2018-11-05T02:13:48.455Z,17.53
2018-11-05T02:16:17.006Z,17.73
2018-11-05T02:18:45.873Z,18.33
2018-11-05T02:21:14.500Z,16.50
2018-11-05T02:23:43.031Z,15.57
2018-11-05T02:26:11.589Z,17.87
2018-11-05T02:28:40.170Z,16.70
2018-11-05T02:31:08.681Z,16.40
2018-11-05T02:33:37.218Z,15.53
2018-11-05T02:36:05.743Z,17.23
2018-11-05T02:38:34.357Z,16.30
2018-11-05T02:41:02.907Z,16.30
2018-11-05T02:43:31.412Z,17.30
2018-11-05T02:46:00.033Z,16.17
2018-11-05T02:48:28.594Z,17.00
2018-11-05T02:50:57.186Z,16.37
2018-11-05T02:53:26.070Z,16.60
2018-11-05T02:55:54.874Z,15.43
2018-11-05T02:58:23.452Z,17.73
2018-11-05T03:00:52.074Z,16.50
2018-11-05T03:03:20.671Z,17.43
2018-11-05T03:05:49.187Z,16.87
2018-11-05T03:08:17.729Z,17.17
2018-11-05T03:10:46.508Z,16.87
2018-11-05T03:13:15.070Z,16.90
2018-11-05T03:15:43.643Z,17.50
2018-11-05T03:18:12.266Z,16.97
2018-11-05T03:20:40.808Z,15.80
2018-11-05T03:23:09.417Z,16.27
2018-11-05T03:25:38.089Z,17.63
2018-11-05T03:28:06.625Z,17.30
2018-11-05T03:30:35.782Z,17.47
2018-11-05T03:33:04.477Z,17.30
2018-11-05T03:35:34.371Z,17.80
2018-11-05T03:38:02.915Z,17.77
2018-11-05T03:40:31.474Z,18.17
2018-11-05T03:42:59.994Z,18.37
2018-11-05T03:45:28.812Z,19.53
2018-11-05T03:47:57.358Z,19.63
2018-11-05T03:50:25.892Z,18.80
2018-11-05T03:52:54.479Z,18.83
2018-11-05T03:55:23.025Z,20.27
2018-11-05T03:57:51.624Z,22.10
2018-11-05T04:00:20.170Z,21.00
2018-11-05T04:02:48.715Z,19.20
2018-11-05T04:05:17.328Z,18.50
2018-11-05T04:07:45.845Z,18.80
2018-11-05T04:10:14.936Z,18.70
2018-11-05T04:12:43.474Z,19.07
2018-11-05T04:15:12.628Z,20.03
2018-11-05T04:17:41.226Z,20.67
2018-11-05T04:20:11.679Z,20.00
2018-11-05T04:22:40.411Z,21.40
2018-11-05T04:25:08.959Z,19.83
2018-11-05T04:27:37.499Z,21.27
2018-11-05T04:30:09.191Z,19.30
2018-11-05T04:32:37.863Z,21.87
2018-11-05T04:35:06.416Z,20.23
2018-11-05T04:37:35.063Z,22.03
2018-11-05T04:40:03.879Z,20.70
2018-11-05T04:42:32.431Z,18.50
2018-11-05T04:45:00.950Z,21.07
2018-11-05T04:47:29.531Z,19.83
2018-11-05T04:49:58.079Z,21.13
2018-11-05T04:52:26.713Z,19.80
2018-11-05T04:54:55.348Z,21.67
2018-11-05T04:57:23.925Z,19.77
2018-11-05T04:59:52.490Z,20.33
2018-11-05T05:02:21.044Z,19.53
2018-11-05T05:04:49.638Z,18.33
2018-11-05T05:07:18.133Z,18.73
2018-11-05T05:09:46.695Z,19.90
2018-11-05T05:12:15.368Z,17.93
2018-11-05T05:14:44.012Z,17.40
2018-11-05T05:17:12.505Z,21.03
2018-11-05T05:19:41.065Z,17.70
2018-11-05T05:22:09.676Z,19.03
2018-11-05T05:24:38.219Z,17.70
2018-11-05T05:27:06.814Z,19.20
2018-11-05T05:29:35.409Z,18.63
2018-11-05T05:32:03.916Z,17.80
2018-11-05T05:34:32.427Z,18.47
2018-11-05T05:37:00.975Z,18.03
2018-11-05T05:39:29.979Z,18.00
2018-11-05T05:41:58.770Z,19.80
2018-11-05T05:44:27.861Z,18.20
2018-11-05T05:46:56.418Z,16.27
2018-11-05T05:49:24.922Z,19.63
2018-11-05T05:51:53.655Z,17.90
2018-11-05T05:54:22.175Z,17.40
2018-11-05T05:56:50.688Z,17.93
2018-11-05T05:59:19.242Z,19.40
2018-11-05T06:01:47.786Z,18.50
2018-11-05T06:04:17.803Z,18.77
2018-11-05T06:06:46.382Z,18.43
2018-11-05T06:09:14.900Z,17.87
2018-11-05T06:11:43.464Z,17.77
2018-11-05T06:14:12.120Z,19.87
2018-11-05T06:16:40.846Z,19.67
2018-11-05T06:19:09.421Z,20.57
2018-11-05T06:21:37.981Z,19.80
2018-11-05T06:24:06.562Z,20.43
2018-11-05T06:26:35.157Z,17.93
2018-11-05T06:29:03.692Z,20.40
2018-11-05T06:31:32.209Z,19.93
2018-11-05T06:34:00.742Z,20.53
2018-11-05T06:36:29.294Z,22.00
2018-11-05T06:38:57.841Z,21.00
2018-11-05T06:41:33.088Z,21.40
2018-11-05T06:44:02.471Z,23.33
2018-11-05T06:46:31.474Z,25.40
2018-11-05T06:49:00.123Z,21.37
2018-11-05T06:51:29.338Z,24.80
2018-11-05T06:53:58.244Z,26.20
2018-11-05T06:56:26.791Z,26.30
2018-11-05T06:58:55.346Z,25.07
2018-11-05T07:01:23.905Z,26.30
2018-11-05T07:03:52.444Z,26.90
2018-11-05T07:06:21.080Z,27.30
2018-11-05T07:08:49.610Z,25.27
2018-11-05T07:11:18.239Z,26.17
2018-11-05T07:13:46.847Z,24.37
2018-11-05T07:16:15.398Z,26.97
2018-11-05T07:18:44.108Z,27.27
2018-11-05T07:21:12.473Z,27.50
2018-11-05T07:23:41.062Z,26.67
2018-11-05T07:26:09.653Z,28.20
2018-11-05T07:28:38.210Z,28.73
2018-11-05T07:31:06.821Z,26.73
2018-11-05T07:33:35.465Z,27.90
2018-11-05T07:36:04.087Z,27.47
2018-11-05T07:38:32.638Z,28.03
2018-11-05T07:41:01.481Z,24.77
2018-11-05T07:43:30.616Z,26.63
2018-11-05T07:45:59.159Z,27.30
2018-11-05T07:48:27.753Z,26.50
2018-11-05T07:50:56.271Z,27.00
2018-11-05T07:53:24.857Z,26.80
2018-11-05T07:55:53.423Z,27.97
2018-11-05T07:58:21.948Z,28.17
2018-11-05T08:00:58.113Z,29.20
2018-11-05T08:03:27.191Z,26.17
2018-11-05T08:05:56.306Z,28.93
2018-11-05T08:08:24.905Z,26.73
2018-11-05T08:10:53.679Z,29.40
2018-11-05T08:13:22.218Z,27.77
2018-11-05T08:15:50.757Z,28.43
2018-11-05T08:18:19.323Z,27.47
2018-11-05T08:20:47.832Z,26.80
2018-11-05T08:23:16.366Z,26.03
2018-11-05T08:25:44.913Z,31.77
2018-11-05T08:28:13.485Z,28.27
2018-11-05T08:30:42.039Z,28.33
2018-11-05T08:33:10.949Z,27.90
2018-11-05T08:35:39.495Z,27.47
2018-11-05T08:38:08.095Z,26.80
2018-11-05T08:40:36.688Z,27.23
2018-11-05T08:43:05.737Z,23.90
2018-11-05T08:45:34.307Z,26.30
2018-11-05T08:48:02.812Z,25.73
2018-11-05T08:50:31.481Z,28.20
2018-11-05T08:53:00.017Z,28.50
2018-11-05T08:55:29.121Z,28.47
2018-11-05T08:57:57.629Z,29.03
2018-11-05T09:00:31.479Z,25.67
2018-11-05T09:02:59.980Z,31.17
2018-11-05T09:05:28.486Z,29.57
2018-11-05T09:07:57.192Z,26.43
2018-11-05T09:10:25.947Z,26.97
2018-11-05T09:12:54.286Z,30.40
2018-11-05T09:15:23.322Z,27.67
2018-11-05T09:17:52.755Z,28.70
2018-11-05T09:20:21.869Z,27.03
2018-11-05T09:22:51.096Z,27.07
2018-11-05T09:25:19.681Z,26.23
2018-11-05T09:27:48.336Z,26.30
2018-11-05T09:30:22.284Z,26.13
2018-11-05T09:32:50.873Z,27.00
2018-11-05T09:35:19.433Z,27.43
2018-11-05T09:37:47.946Z,28.43
2018-11-05T09:40:19.047Z,24.97
2018-11-05T09:42:48.259Z,25.40
2018-11-05T09:45:19.908Z,25.43
2018-11-05T09:47:48.517Z,25.40
2018-11-05T09:50:17.730Z,24.97
2018-11-05T09:52:46.277Z,24.57
2018-11-05T09:55:15.678Z,27.43
2018-11-05T09:57:44.169Z,24.77
2018-11-05T10:00:16.941Z,25.60
2018-11-05T10:02:50.630Z,25.00
2018-11-05T10:05:19.308Z,24.60
2018-11-05T10:07:47.720Z,24.87
2018-11-05T10:10:17.019Z,26.87
2018-11-05T10:12:45.695Z,28.00
2018-11-05T10:15:15.264Z,26.73
2018-11-05T10:17:43.808Z,27.23
2018-11-05T10:20:15.872Z,24.77
2018-11-05T10:22:44.813Z,25.57
2018-11-05T10:25:19.998Z,26.10
2018-11-05T10:27:49.328Z,25.00
2018-11-05T10:30:25.677Z,26.97
2018-11-05T10:32:54.295Z,26.90
2018-11-05T10:35:29.967Z,27.10
2018-11-05T10:37:58.575Z,24.77
2018-11-05T10:40:27.225Z,24.17
2018-11-05T10:42:55.713Z,24.90
2018-11-05T10:45:24.218Z,23.70
2018-11-05T10:47:56.003Z,22.53
2018-11-05T10:50:24.602Z,24.70
2018-11-05T10:52:53.188Z,21.40
2018-11-05T10:55:21.852Z,24.43
2018-11-05T10:57:50.519Z,24.90
2018-11-05T11:00:25.339Z,24.93
2018-11-05T11:02:59.078Z,25.37
2018-11-05T11:05:28.791Z,24.33
2018-11-05T11:07:58.508Z,24.43
2018-11-05T11:10:27.895Z,25.20
2018-11-05T11:12:56.595Z,24.57
2018-11-05T11:15:25.186Z,25.87
2018-11-05T11:17:53.977Z,25.77
2018-11-05T11:20:22.550Z,23.97
2018-11-05T11:22:51.059Z,25.47
2018-11-05T11:25:19.666Z,27.03
2018-11-05T11:27:48.298Z,26.20
2018-11-05T11:30:17.414Z,35.30
2018-11-05T11:32:46.820Z,27.67
2018-11-05T11:35:15.349Z,28.80
2018-11-05T11:37:44.274Z,30.00
2018-11-05T11:40:17.859Z,31.80
2018-11-05T11:42:47.310Z,28.53
2018-11-05T11:45:16.703Z,25.83
2018-11-05T11:47:45.214Z,27.57
2018-11-05T11:50:15.069Z,27.97
2018-11-05T11:52:43.701Z,26.10
2018-11-05T11:55:13.912Z,26.97
2018-11-05T11:57:42.811Z,27.03
2018-11-05T12:00:15.622Z,27.90
2018-11-05T12:02:44.396Z,26.57
2018-11-05T12:05:13.245Z,29.90
2018-11-05T12:07:41.622Z,26.90
2018-11-05T12:10:12.056Z,29.00
2018-11-05T12:12:40.714Z,29.33
2018-11-05T12:15:10.510Z,24.70
2018-11-05T12:17:39.534Z,28.37
2018-11-05T12:20:10.245Z,28.30
2018-11-05T12:22:38.773Z,26.53
2018-11-05T12:25:07.784Z,26.50
2018-11-05T12:27:36.443Z,28.10
2018-11-05T12:30:06.355Z,28.30
2018-11-05T12:32:34.914Z,28.80
2018-11-05T12:35:03.526Z,27.13
2018-11-05T12:37:32.102Z,27.30
2018-11-05T12:40:00.742Z,27.60
2018-11-05T12:42:29.319Z,27.60
2018-11-05T12:44:57.952Z,27.93
2018-11-05T12:47:26.454Z,25.83
2018-11-05T12:49:55.004Z,26.30
2018-11-05T12:52:23.549Z,26.40
2018-11-05T12:54:52.049Z,29.30
2018-11-05T12:57:21.247Z,26.60
2018-11-05T12:59:56.349Z,27.27
2018-11-05T13:02:25.912Z,26.67
2018-11-05T13:04:54.910Z,28.80
2018-11-05T13:07:26.425Z,27.40
2018-11-05T13:09:54.996Z,28.70
2018-11-05T13:12:23.525Z,27.53
2018-11-05T13:14:52.100Z,25.40
2018-11-05T13:17:20.626Z,25.87
2018-11-05T13:19:49.143Z,27.60
2018-11-05T13:22:18.290Z,27.00
2018-11-05T13:24:46.766Z,26.80
2018-11-05T13:27:15.331Z,27.37
2018-11-05T13:29:43.837Z,26.20
2018-11-05T13:32:12.392Z,27.60
2018-11-05T13:34:41.217Z,25.77
2018-11-05T13:37:10.385Z,26.00
2018-11-05T13:39:38.681Z,26.73
2018-11-05T13:42:07.262Z,27.03
2018-11-05T13:44:35.967Z,25.63
2018-11-05T13:47:04.845Z,28.90
2018-11-05T13:49:33.693Z,28.57
2018-11-05T13:52:02.177Z,26.60
2018-11-05T13:54:30.857Z,25.93
2018-11-05T13:56:59.299Z,25.53
2018-11-05T13:59:27.815Z,25.63
2018-11-05T14:01:56.410Z,24.70
2018-11-05T14:04:25.106Z,24.77
2018-11-05T14:06:56.490Z,26.40
2018-11-05T14:09:25.070Z,25.60
2018-11-05T14:11:53.646Z,26.40
2018-11-05T14:14:22.162Z,26.70
2018-11-05T14:16:50.756Z,24.00
2018-11-05T14:19:19.338Z,25.53
2018-11-05T14:21:47.928Z,27.37
2018-11-05T14:24:16.516Z,25.80
2018-11-05T14:26:45.060Z,25.20
2018-11-05T14:29:13.968Z,29.17
2018-11-05T14:31:42.249Z,27.23
2018-11-05T14:34:10.815Z,26.23
2018-11-05T14:36:39.538Z,27.97
2018-11-05T14:39:12.039Z,26.63
2018-11-05T14:41:40.677Z,26.27
2018-11-05T14:44:09.203Z,25.87
2018-11-05T14:46:37.734Z,25.93
2018-11-05T14:49:06.448Z,26.87
2018-11-05T14:51:35.092Z,29.87
2018-11-05T14:54:04.006Z,26.50
2018-11-05T14:56:32.586Z,30.47
2018-11-05T14:59:01.076Z,28.00
2018-11-05T15:01:29.662Z,30.27
2018-11-05T15:03:58.829Z,30.60
2018-11-05T15:06:27.374Z,31.60
2018-11-05T15:08:55.954Z,28.07
2018-11-05T15:11:24.527Z,30.47
2018-11-05T15:13:53.091Z,30.27
2018-11-05T15:16:21.629Z,29.90
2018-11-05T15:18:50.631Z,29.00
2018-11-05T15:21:18.853Z,29.00
2018-11-05T15:23:47.354Z,36.57
2018-11-05T15:26:15.924Z,27.33
2018-11-05T15:28:44.478Z,28.07
2018-11-05T15:31:13.250Z,27.73
2018-11-05T15:33:41.809Z,28.23
2018-11-05T15:36:10.353Z,29.77
2018-11-05T15:38:38.882Z,28.70
2018-11-05T15:41:07.510Z,27.17
2018-11-05T15:43:36.070Z,28.77
2018-11-05T15:46:05.021Z,28.33
2018-11-05T15:48:33.620Z,28.53
2018-11-05T15:51:02.242Z,27.43
2018-11-05T15:53:31.214Z,26.90
2018-11-05T15:55:59.321Z,23.60
2018-11-05T15:58:27.885Z,24.60
2018-11-05T16:00:56.417Z,26.10
2018-11-05T16:03:24.933Z,25.73
2018-11-05T16:05:53.495Z,25.60
2018-11-05T16:08:22.107Z,26.03
2018-11-05T16:10:50.759Z,26.57
2018-11-05T16:13:19.522Z,27.40
2018-11-05T16:15:48.097Z,24.93
2018-11-05T16:18:16.631Z,26.43
2018-11-05T16:20:45.284Z,31.00
2018-11-05T16:23:13.793Z,25.80
2018-11-05T16:25:42.411Z,28.40
2018-11-05T16:28:10.904Z,26.70
2018-11-05T16:30:39.590Z,26.30
2018-11-05T16:33:08.077Z,26.40
2018-11-05T16:35:36.762Z,28.00
2018-11-05T16:38:05.283Z,28.83
2018-11-05T16:40:33.818Z,26.53
2018-11-05T16:43:02.404Z,28.03
2018-11-05T16:45:30.924Z,28.47
2018-11-05T16:47:59.434Z,30.73
2018-11-05T16:50:28.867Z,27.80
2018-11-05T16:52:57.440Z,26.03
2018-11-05T16:55:25.992Z,25.87
2018-11-05T16:57:54.586Z,24.80
2018-11-05T17:00:23.061Z,26.07
2018-11-05T17:02:51.715Z,28.00
2018-11-05T17:05:20.279Z,26.00
2018-11-05T17:07:48.886Z,28.27
2018-11-05T17:10:17.457Z,26.20
2018-11-05T17:12:46.193Z,25.57
2018-11-05T17:15:15.958Z,27.90
2018-11-05T17:17:44.843Z,26.70
2018-11-05T17:20:14.965Z,26.33
2018-11-05T17:22:46.790Z,26.87
2018-11-05T17:25:15.939Z,26.13
2018-11-05T17:27:45.314Z,27.03
2018-11-05T17:30:17.246Z,26.43
2018-11-05T17:32:45.847Z,28.43
2018-11-05T17:35:15.251Z,27.47
2018-11-05T17:37:50.766Z,27.33
2018-11-05T17:40:21.047Z,26.30
2018-11-05T17:42:49.468Z,26.80
2018-11-05T17:45:18.870Z,26.23
2018-11-05T17:47:47.759Z,28.20
2018-11-05T17:50:17.710Z,27.30
2018-11-05T17:52:46.277Z,27.07
2018-11-05T17:55:15.192Z,27.37
2018-11-05T17:57:44.880Z,26.70
2018-11-05T18:00:15.350Z,30.33
2018-11-05T18:02:44.881Z,28.80
2018-11-05T18:05:13.562Z,28.80
2018-11-05T18:07:42.236Z,28.77
2018-11-05T18:10:10.779Z,27.60
2018-11-05T18:12:39.297Z,28.73
2018-11-05T18:15:09.488Z,29.83
2018-11-05T18:17:38.438Z,27.37
2018-11-05T18:20:08.558Z,26.20
2018-11-05T18:22:37.115Z,27.40
2018-11-05T18:25:06.883Z,27.97
2018-11-05T18:27:35.562Z,26.63
2018-11-05T18:30:04.087Z,29.63
2018-11-05T18:32:32.663Z,27.50
2018-11-05T18:35:02.195Z,28.30
2018-11-05T18:37:30.719Z,28.17
2018-11-05T18:39:59.475Z,26.43
2018-11-05T18:42:28.006Z,26.63
2018-11-05T18:44:56.595Z,29.43
2018-11-05T18:47:25.167Z,28.87
2018-11-05T18:49:53.649Z,28.07
2018-11-05T18:52:22.228Z,29.57
2018-11-05T18:54:50.798Z,29.67
2018-11-05T18:57:19.325Z,29.50
2018-11-05T18:59:47.904Z,29.57
2018-11-05T19:02:21.839Z,31.37
2018-11-05T19:04:50.520Z,28.30
2018-11-05T19:07:19.126Z,29.30
2018-11-05T19:09:47.670Z,30.70
2018-11-05T19:12:16.341Z,29.80
2018-11-05T19:14:44.874Z,31.83
2018-11-05T19:17:13.360Z,32.33
2018-11-05T19:19:41.912Z,30.97
2018-11-05T19:22:10.551Z,29.93
2018-11-05T19:24:39.173Z,32.00
2018-11-05T19:27:07.701Z,31.80
2018-11-05T19:29:36.336Z,33.80
2018-11-05T19:32:05.364Z,31.63
2018-11-05T19:34:33.895Z,39.17
2018-11-05T19:37:02.444Z,33.80
2018-11-05T19:39:30.978Z,33.10
2018-11-05T19:41:59.885Z,36.73
2018-11-05T19:44:28.384Z,32.93
2018-11-05T19:46:56.938Z,34.20
2018-11-05T19:49:25.554Z,34.10
2018-11-05T19:51:54.143Z,33.27
2018-11-05T19:54:22.751Z,30.60
2018-11-05T19:56:51.540Z,34.40
2018-11-05T19:59:20.063Z,33.17
2018-11-05T20:01:48.631Z,35.43
2018-11-05T20:04:17.208Z,32.50
2018-11-05T20:06:45.778Z,36.53
2018-11-05T20:09:14.499Z,36.80
2018-11-05T20:11:43.610Z,36.47
2018-11-05T20:14:12.148Z,36.37
2018-11-05T20:16:40.790Z,37.17
2018-11-05T20:19:09.680Z,39.20
2018-11-05T20:21:38.270Z,37.40
2018-11-05T20:24:06.849Z,37.00
2018-11-05T20:26:35.463Z,37.87
2018-11-05T20:29:04.052Z,38.03
2018-11-05T20:31:32.907Z,38.27
2018-11-05T20:34:01.675Z,37.90
2018-11-05T20:36:30.000Z,37.23
2018-11-05T20:38:58.510Z,39.30
2018-11-05T20:41:27.160Z,39.03
2018-11-05T20:43:55.928Z,40.80
2018-11-05T20:46:31.153Z,41.00
2018-11-05T20:48:59.631Z,39.33
2018-11-05T20:51:28.153Z,40.60
2018-11-05T20:53:56.782Z,38.27
2018-11-05T20:56:25.299Z,39.13
2018-11-05T20:58:53.971Z,38.03
2018-11-05T21:01:22.490Z,39.70
2018-11-05T21:03:51.142Z,39.23
2018-11-05T21:06:19.709Z,42.93
2018-11-05T21:08:48.243Z,37.73
2018-11-05T21:11:17.157Z,40.77
2018-11-05T21:13:45.686Z,39.70
2018-11-05T21:16:14.256Z,38.50
2018-11-05T21:18:43.052Z,38.60
2018-11-05T21:21:11.732Z,37.93
2018-11-05T21:23:40.319Z,40.37
2018-11-05T21:26:08.947Z,38.77
2018-11-05T21:28:37.560Z,37.70
2018-11-05T21:31:06.125Z,38.13
2018-11-05T21:33:34.655Z,38.23
2018-11-05T21:36:03.256Z,39.27
2018-11-05T21:38:31.841Z,40.20
2018-11-05T21:41:00.357Z,39.30
2018-11-05T21:43:28.953Z,38.00
2018-11-05T21:45:58.182Z,39.33
2018-11-05T21:48:26.704Z,39.03
2018-11-05T21:50:55.383Z,38.37
2018-11-05T21:53:23.939Z,41.70
2018-11-05T21:55:52.456Z,41.03
2018-11-05T21:58:21.153Z,39.90
2018-11-05T22:00:49.685Z,37.67
2018-11-05T22:03:19.205Z,38.90
2018-11-05T22:05:47.845Z,39.07
2018-11-05T22:08:16.430Z,38.70
2018-11-05T22:10:44.951Z,39.70
2018-11-05T22:13:13.554Z,40.77
2018-11-05T22:15:44.786Z,40.07
2018-11-05T22:18:13.828Z,41.30
2018-11-05T22:20:42.610Z,39.57
2018-11-05T22:23:11.186Z,38.77
2018-11-05T22:25:40.627Z,40.07
2018-11-05T22:28:09.430Z,38.70
2018-11-05T22:30:38.021Z,41.80
2018-11-05T22:33:06.864Z,39.63
2018-11-05T22:35:35.487Z,38.00
2018-11-05T22:38:04.089Z,40.10
2018-11-05T22:40:32.712Z,38.30
2018-11-05T22:43:01.222Z,37.07
2018-11-05T22:45:29.730Z,38.37
2018-11-05T22:47:58.258Z,37.33
2018-11-05T22:50:26.800Z,39.57
2018-11-05T22:52:55.400Z,40.63
2018-11-05T22:55:23.995Z,40.47
2018-11-05T22:57:52.705Z,38.20
2018-11-05T23:00:26.526Z,36.33
2018-11-05T23:03:00.400Z,42.17
2018-11-05T23:05:28.912Z,41.77
2018-11-05T23:07:57.437Z,39.43
2018-11-05T23:10:26.246Z,39.50
2018-11-05T23:12:54.741Z,42.20
2018-11-05T23:15:23.298Z,39.07
2018-11-05T23:17:52.013Z,38.77
2018-11-05T23:20:20.677Z,38.90
2018-11-05T23:22:49.240Z,40.33
2018-11-05T23:25:17.816Z,41.57
2018-11-05T23:27:46.428Z,41.20
2018-11-05T23:30:14.959Z,39.10
2018-11-05T23:32:43.604Z,40.63
2018-11-05T23:35:12.591Z,38.77
2018-11-05T23:37:41.694Z,41.47
2018-11-05T23:40:10.484Z,42.10
2018-11-05T23:42:39.592Z,40.50
2018-11-05T23:45:11.663Z,42.60
2018-11-05T23:47:40.827Z,42.53
2018-11-05T23:50:09.817Z,48.13
2018-11-05T23:52:38.372Z,40.07
2018-11-05T23:55:08.118Z,40.73
2018-11-05T23:57:36.858Z,39.23
